Time;durP1;ratioP1;P1;durP2;ratioP2;P2;SDS_P1;SDS_P2;PMS_P1;PMS_P2;Temp;Humidity;BMP_temperature;BMP_pressure;BME280_temperature;BME280_humidity;BME280_pressure;Samples;Min_cycle;Max_cycle;Signal;HPM_P1;HPM_P2
2022/12/07 00:05:18;;;;;;;38.00;22.43;;;5.40;99.90;;;;;;2613243;46;20142;-79
2022/12/07 00:11:12;;;;;;;32.40;20.87;;;5.40;99.90;;;;;;2615189;54;20155;-81
2022/12/07 00:17:00;;;;;;;39.03;23.20;;;5.40;99.90;;;;;;2615184;54;20487;-80
2022/12/07 00:22:48;;;;;;;28.70;21.47;;;5.40;99.90;;;;;;2613331;54;20627;-78
2022/12/07 00:28:37;;;;;;;28.80;19.37;;;5.40;99.90;;;;;;2615097;54;20208;-78
2022/12/07 00:34:24;;;;;;;30.33;20.60;;;5.50;99.90;;;;;;2614575;54;20378;-78
2022/12/07 00:40:12;;;;;;;28.27;20.63;;;5.50;99.90;;;;;;2613614;54;20122;-78
2022/12/07 00:46:00;;;;;;;31.77;22.33;;;5.50;99.90;;;;;;2613354;54;20186;-78
2022/12/07 00:51:49;;;;;;;37.27;24.17;;;5.40;99.90;;;;;;2613840;54;20158;-77
2022/12/07 01:01:46;;;;;;;30.47;22.53;;;5.50;99.90;;;;;;2613118;39;20537;-78
2022/12/07 01:07:33;;;;;;;35.30;23.60;;;5.50;99.90;;;;;;2614260;54;20406;-77
2022/12/07 01:13:21;;;;;;;39.80;26.30;;;5.50;99.90;;;;;;2614056;54;20126;-78
2022/12/07 01:19:09;;;;;;;41.20;25.33;;;5.50;99.90;;;;;;2614247;54;20179;-78
2022/12/07 01:24:57;;;;;;;41.80;26.90;;;5.50;99.90;;;;;;2615195;39;20537;-78
2022/12/07 01:30:44;;;;;;;46.30;28.10;;;5.60;99.90;;;;;;2612933;54;20122;-77
2022/12/07 01:36:35;;;;;;;43.30;25.40;;;5.50;99.90;;;;;;2613505;39;20221;-79
2022/12/07 01:42:22;;;;;;;38.80;25.33;;;5.50;99.90;;;;;;2614062;54;20428;-75
2022/12/07 01:48:14;;;;;;;35.17;24.03;;;5.60;99.90;;;;;;2613979;54;20640;-76
2022/12/07 01:54:02;;;;;;;40.67;27.90;;;5.60;99.90;;;;;;2612872;54;20924;-78
2022/12/07 01:57:14;;;;;;;39.47;25.10;;;5.50;99.90;;;;;;2614508;54;20424;-79
2022/12/07 01:59:42;;;;;;;37.40;25.60;;;5.50;99.90;;;;;;2614744;54;20411;-78
2022/12/07 02:05:31;;;;;;;42.37;24.53;;;5.40;99.90;;;;;;2614533;54;20945;-79
2022/12/07 02:11:19;;;;;;;44.00;27.00;;;5.40;99.90;;;;;;2613519;54;20378;-75
2022/12/07 02:49:44;;;;;;;34.33;23.60;;;5.20;99.90;;;;;;2612279;54;20405;-78
2022/12/07 02:55:38;;;;;;;37.10;23.67;;;5.10;99.90;;;;;;2613009;54;20503;-81
2022/12/07 03:05:00;;;;;;;33.97;23.27;;;5.00;99.90;;;;;;2613816;54;20399;-79
2022/12/07 03:17:27;;;;;;;35.37;23.57;;;4.80;99.90;;;;;;2612717;54;21011;-79
2022/12/07 03:23:16;;;;;;;37.47;23.23;;;4.70;99.90;;;;;;2613618;54;20403;-77
2022/12/07 03:29:14;;;;;;;32.10;22.57;;;4.60;99.90;;;;;;2614772;54;20483;-78
2022/12/07 03:35:07;;;;;;;34.93;24.53;;;4.40;99.90;;;;;;2614470;54;20426;-80
2022/12/07 04:00:04;;;;;;;36.70;22.83;;;4.50;99.90;;;;;;2615076;54;20523;-71
2022/12/07 04:05:52;;;;;;;34.00;23.20;;;4.50;99.90;;;;;;2614484;54;20429;-72
2022/12/07 04:09:04;;;;;;;37.33;21.77;;;4.50;99.90;;;;;;2614133;54;20378;-71
2022/12/07 04:14:51;;;;;;;31.00;20.63;;;4.50;99.90;;;;;;2613819;39;20766;-72
2022/12/07 04:20:39;;;;;;;43.07;28.50;;;4.60;99.90;;;;;;2612711;54;20158;-73
2022/12/07 04:26:28;;;;;;;44.73;26.20;;;4.50;99.90;;;;;;2613200;54;20158;-71
2022/12/07 04:32:15;;;;;;;39.03;25.47;;;4.50;99.90;;;;;;2614363;54;20927;-71
2022/12/07 04:38:03;;;;;;;46.83;24.77;;;4.50;99.90;;;;;;2613505;54;20166;-72
2022/12/07 04:43:50;;;;;;;42.47;25.93;;;4.40;99.90;;;;;;2613231;54;20126;-74
2022/12/07 04:49:38;;;;;;;37.23;25.67;;;4.30;99.90;;;;;;2613159;54;20130;-73
2022/12/07 04:55:26;;;;;;;48.53;26.00;;;4.20;99.90;;;;;;2613858;46;20151;-72
2022/12/07 05:01:16;;;;;;;41.43;23.37;;;4.30;99.90;;;;;;2612586;54;20151;-72
2022/12/07 05:04:33;;;;;;;40.73;25.13;;;4.30;99.90;;;;;;2614452;39;20795;-73
2022/12/07 05:06:58;;;;;;;38.93;22.90;;;4.30;99.90;;;;;;2613127;39;20847;-73
2022/12/07 05:12:47;;;;;;;36.87;22.80;;;4.30;99.90;;;;;;2613927;54;20137;-72
2022/12/07 05:18:34;;;;;;;42.10;22.60;;;4.30;99.90;;;;;;2614324;39;20430;-71
2022/12/07 05:24:22;;;;;;;39.73;23.30;;;4.30;99.90;;;;;;2614446;54;20122;-73
2022/12/07 05:30:10;;;;;;;35.70;24.57;;;4.30;99.90;;;;;;2613715;54;20151;-73
2022/12/07 05:35:58;;;;;;;37.03;22.57;;;4.30;99.90;;;;;;2614582;54;20378;-74
2022/12/07 05:47:51;;;;;;;36.90;21.60;;;4.30;99.90;;;;;;2615327;46;20380;-69
2022/12/07 05:53:39;;;;;;;39.63;22.20;;;4.30;99.90;;;;;;2614740;54;20177;-72
2022/12/07 05:59:27;;;;;;;40.10;22.60;;;4.30;99.90;;;;;;2614463;54;20126;-72
2022/12/07 06:09:06;;;;;;;34.80;21.40;;;4.30;99.90;;;;;;2614143;54;20371;-72
2022/12/07 06:14:53;;;;;;;33.27;22.00;;;4.30;99.90;;;;;;2614599;54;20506;-73
2022/12/07 06:20:41;;;;;;;36.37;21.27;;;4.30;99.90;;;;;;2615021;54;20620;-75
2022/12/07 06:26:29;;;;;;;33.60;20.70;;;4.40;99.90;;;;;;2613455;54;20123;-73
2022/12/07 06:32:17;;;;;;;45.43;20.53;;;4.40;99.90;;;;;;2611885;54;20154;-74
2022/12/07 06:38:04;;;;;;;30.10;18.10;;;4.40;99.90;;;;;;2613015;54;20154;-74
2022/12/07 06:43:52;;;;;;;23.80;18.47;;;4.30;99.90;;;;;;2613084;39;20744;-72
2022/12/07 06:49:40;;;;;;;24.20;17.00;;;4.30;99.90;;;;;;2611887;54;20699;-71
2022/12/07 06:55:27;;;;;;;25.90;16.93;;;4.30;99.90;;;;;;2609247;54;20134;-74
2022/12/07 07:01:17;;;;;;;26.77;17.43;;;4.30;99.90;;;;;;2614036;54;20150;-72
2022/12/07 07:04:33;;;;;;;27.23;18.63;;;4.30;99.90;;;;;;2613278;47;20411;-74
2022/12/07 07:07:01;;;;;;;31.10;17.57;;;4.30;99.90;;;;;;2613051;54;20442;-71
2022/12/07 07:12:49;;;;;;;23.37;15.30;;;4.10;99.90;;;;;;2609250;54;20488;-76
2022/12/07 07:18:37;;;;;;;37.47;18.03;;;4.20;99.90;;;;;;2613524;39;20516;-73
2022/12/07 07:24:25;;;;;;;30.87;16.93;;;4.20;99.90;;;;;;2613850;54;20163;-71
2022/12/07 07:30:13;;;;;;;26.70;16.00;;;4.20;99.90;;;;;;2612249;54;20141;-73
2022/12/07 07:36:00;;;;;;;27.90;14.90;;;4.20;99.90;;;;;;2612924;39;20776;-71
2022/12/07 07:41:48;;;;;;;24.27;14.83;;;4.30;99.90;;;;;;2614171;54;20624;-72
2022/12/07 07:44:13;;;;;;;20.90;15.13;;;4.30;99.90;;;;;;2611126;54;20406;-73
2022/12/07 07:46:39;;;;;;;23.77;14.87;;;4.30;99.90;;;;;;2611456;54;20182;-71
2022/12/07 07:52:26;;;;;;;25.37;14.47;;;4.30;99.90;;;;;;2612384;54;20134;-72
2022/12/07 07:58:35;;;;;;;21.77;15.40;;;4.30;99.90;;;;;;2610329;54;20723;-71
2022/12/07 08:04:22;;;;;;;30.00;16.13;;;4.50;99.90;;;;;;2611234;54;20459;-72
2022/12/07 08:10:11;;;;;;;33.00;16.60;;;4.60;99.90;;;;;;2610342;54;20138;-72
2022/12/07 08:15:58;;;;;;;22.57;15.10;;;4.50;99.90;;;;;;2612901;54;20396;-71
2022/12/07 08:21:46;;;;;;;31.97;16.90;;;4.60;99.90;;;;;;2612392;54;20151;-71
2022/12/07 08:27:33;;;;;;;26.77;15.13;;;4.70;99.90;;;;;;2613098;54;20147;-73
2022/12/07 08:33:22;;;;;;;24.93;15.40;;;4.80;99.90;;;;;;2614509;39;20537;-72
2022/12/07 08:39:10;;;;;;;25.93;16.20;;;4.80;99.90;;;;;;2612471;54;20431;-70
2022/12/07 08:44:58;;;;;;;24.23;15.37;;;4.90;99.90;;;;;;2614879;39;20798;-71
2022/12/07 08:50:46;;;;;;;20.80;13.80;;;5.00;99.90;;;;;;2614658;54;20142;-71
2022/12/07 08:56:34;;;;;;;39.97;15.57;;;5.10;99.90;;;;;;2613151;54;20133;-71
2022/12/07 09:02:22;;;;;;;23.70;15.43;;;5.00;99.90;;;;;;2616003;54;20515;-72
2022/12/07 09:08:10;;;;;;;33.90;15.33;;;5.00;99.90;;;;;;2614365;54;20176;-71
2022/12/07 09:13:57;;;;;;;26.93;14.83;;;5.00;99.90;;;;;;2613561;54;20175;-71
2022/12/07 09:19:45;;;;;;;30.40;15.47;;;5.10;99.90;;;;;;2612091;54;20171;-71
2022/12/07 09:25:34;;;;;;;17.40;14.53;;;5.70;99.90;;;;;;2615559;54;20707;-71
2022/12/07 09:31:22;;;;;;;41.63;16.10;;;6.00;99.90;;;;;;2614186;54;20535;-71
2022/12/07 09:37:10;;;;;;;21.47;15.17;;;5.70;99.90;;;;;;2613635;54;20134;-70
2022/12/07 09:42:58;;;;;;;20.40;14.33;;;5.60;99.90;;;;;;2615473;54;20452;-71
2022/12/07 09:48:46;;;;;;;22.77;15.47;;;5.80;99.90;;;;;;2611898;54;20162;-70
2022/12/07 09:54:40;;;;;;;23.83;13.13;;;5.70;99.90;;;;;;2614269;54;20402;-71
2022/12/07 10:00:29;;;;;;;26.57;15.03;;;7.30;99.90;;;;;;2614708;54;20391;-70
2022/12/07 10:09:39;;;;;;;15.60;9.90;;;6.60;99.90;;;;;;2614849;54;20442;-73
2022/12/07 10:22:12;;;;;;;23.27;13.40;;;6.00;99.90;;;;;;2610509;54;20519;-71
2022/12/07 10:34:36;;;;;;;18.20;11.13;;;5.80;99.90;;;;;;2612870;54;20406;-73
2022/12/07 10:40:28;;;;;;;22.00;11.37;;;5.90;99.90;;;;;;2612984;54;20511;-72
2022/12/07 10:46:37;;;;;;;17.00;11.03;;;6.10;99.90;;;;;;2612728;46;20440;-72
2022/12/07 10:52:27;;;;;;;14.23;10.23;;;6.10;99.90;;;;;;2612693;39;20789;-73
2022/12/07 11:05:06;;;;;;;17.97;10.37;;;6.30;99.90;;;;;;2613762;54;20415;-72
2022/12/07 11:37:19;;;;;;;14.57;7.37;;;6.40;99.90;;;;;;2609980;39;20886;-74
2022/12/07 11:50:05;;;;;;;14.20;6.50;;;7.90;99.90;;;;;;2608731;54;20407;-71
2022/12/07 11:56:05;;;;;;;9.03;5.87;;;7.30;99.90;;;;;;2612396;54;20387;-72
2022/12/07 12:21:28;;;;;;;6.93;4.50;;;6.70;99.90;;;;;;2610351;54;20358;-72
2022/12/07 12:27:26;;;;;;;12.27;5.90;;;6.70;99.90;;;;;;2613862;54;20427;-75
2022/12/07 12:39:29;;;;;;;12.47;5.20;;;6.60;99.90;;;;;;2613696;54;20960;-71
2022/12/07 12:45:21;;;;;;;9.37;5.03;;;6.50;99.90;;;;;;2613433;54;20290;-73
2022/12/07 13:01:44;;;;;;;6.60;5.40;;;6.90;99.90;;;;;;2612620;54;20386;-71
2022/12/07 13:05:05;;;;;;;12.37;7.30;;;7.00;99.90;;;;;;2611922;54;20417;-72
2022/12/07 13:07:49;;;;;;;16.00;9.47;;;7.00;99.90;;;;;;2609128;54;20431;-71
2022/12/07 13:10:22;;;;;;;16.30;10.93;;;6.80;99.90;;;;;;2611217;54;20434;-70
2022/12/07 13:13:10;;;;;;;14.23;9.30;;;6.90;99.90;;;;;;2612967;39;20833;-72
2022/12/07 13:18:57;;;;;;;15.37;10.07;;;6.80;99.90;;;;;;2612091;54;20434;-72
2022/12/07 13:24:45;;;;;;;15.33;11.10;;;6.80;99.90;;;;;;2612432;54;20186;-76
2022/12/07 13:31:03;;;;;;;16.23;11.80;;;6.80;99.90;;;;;;2612931;54;20398;-73
2022/12/07 13:33:57;;;;;;;15.07;10.23;;;6.70;99.90;;;;;;2612324;54;20466;-70
2022/12/07 13:52:50;;;;;;;16.13;9.70;;;6.90;99.90;;;;;;2611961;54;20406;-71
2022/12/07 13:58:37;;;;;;;12.30;7.70;;;6.80;99.90;;;;;;2613494;39;20583;-74
2022/12/07 14:04:37;;;;;;;14.63;5.30;;;7.00;99.90;;;;;;2614851;39;20511;-72
2022/12/07 14:10:32;;;;;;;6.40;5.63;;;7.00;99.90;;;;;;2614106;39;20818;-71
2022/12/07 14:13:37;;;;;;;10.10;5.60;;;6.80;99.90;;;;;;2614189;54;20423;-72
2022/12/07 14:19:57;;;;;;;8.80;4.70;;;6.70;99.90;;;;;;2613267;54;20973;-72
2022/12/07 14:25:47;;;;;;;6.27;5.30;;;6.50;99.90;;;;;;2614219;54;20427;-72
2022/12/07 14:31:34;;;;;;;8.90;5.90;;;6.20;99.90;;;;;;2613670;54;20515;-72
2022/12/07 14:37:22;;;;;;;11.07;6.70;;;6.00;99.90;;;;;;2614123;54;20234;-72
2022/12/07 14:43:12;;;;;;;10.27;6.10;;;6.00;99.90;;;;;;2613882;46;20294;-72
2022/12/07 14:49:00;;;;;;;12.40;6.50;;;5.80;99.90;;;;;;2614581;54;21049;-72
2022/12/07 14:54:48;;;;;;;8.17;7.13;;;5.70;99.90;;;;;;2615790;39;20546;-71
2022/12/07 15:00:35;;;;;;;22.00;10.93;;;5.60;99.90;;;;;;2615090;39;20373;-72
2022/12/07 15:06:23;;;;;;;10.03;8.07;;;5.30;99.90;;;;;;2614015;54;20150;-71
2022/12/07 15:09:10;;;;;;;13.13;7.60;;;5.20;99.90;;;;;;2613276;39;20966;-72
2022/12/07 15:11:36;;;;;;;13.93;7.90;;;5.20;99.90;;;;;;2613380;54;20165;-71
2022/12/07 15:17:23;;;;;;;14.30;7.47;;;5.20;99.90;;;;;;2614267;54;20329;-71
2022/12/07 15:23:12;;;;;;;11.90;6.80;;;5.20;99.90;;;;;;2615137;54;20671;-70
2022/12/07 15:28:59;;;;;;;13.40;7.23;;;5.00;99.90;;;;;;2614135;54;20410;-71
2022/12/07 15:34:47;;;;;;;11.17;8.67;;;5.00;99.90;;;;;;2614489;54;20742;-70
2022/12/07 15:40:35;;;;;;;10.70;7.93;;;4.90;99.90;;;;;;2612069;54;20123;-71
2022/12/07 15:46:22;;;;;;;15.23;7.30;;;5.00;99.90;;;;;;2612688;54;20383;-71
2022/12/07 15:52:10;;;;;;;12.07;6.90;;;4.90;99.90;;;;;;2611824;54;20242;-72
2022/12/07 15:57:58;;;;;;;7.97;6.30;;;5.10;99.90;;;;;;2612978;54;20147;-71
2022/12/07 16:03:47;;;;;;;13.80;6.67;;;5.10;99.90;;;;;;2613600;54;20928;-72
2022/12/07 16:13:40;;;;;;;12.47;6.50;;;5.10;99.90;;;;;;2613691;39;20782;-71
2022/12/07 16:19:28;;;;;;;36.70;19.07;;;5.10;99.90;;;;;;2612160;54;20418;-72
2022/12/07 16:25:15;;;;;;;14.93;7.20;;;5.20;99.90;;;;;;2613867;54;20127;-70
2022/12/07 16:37:37;;;;;;;15.70;8.50;;;5.30;99.90;;;;;;2611301;54;20415;-70
2022/12/07 16:43:24;;;;;;;13.07;8.00;;;5.20;99.90;;;;;;2612422;54;20375;-71
2022/12/07 16:49:15;;;;;;;11.13;8.23;;;5.30;99.90;;;;;;2611702;39;20563;-70
2022/12/07 16:52:18;;;;;;;15.97;8.50;;;5.30;99.90;;;;;;2611563;54;20508;-71
2022/12/07 16:54:44;;;;;;;10.20;6.77;;;5.20;99.90;;;;;;2611288;39;20809;-71
2022/12/07 17:00:31;;;;;;;10.50;7.10;;;5.30;99.90;;;;;;2607181;54;20687;-73
2022/12/07 17:06:23;;;;;;;10.40;7.90;;;5.30;99.90;;;;;;2611918;54;20174;-71
2022/12/07 17:12:29;;;;;;;9.70;7.70;;;5.30;99.90;;;;;;2612461;54;20423;-72
2022/12/07 17:18:17;;;;;;;13.53;7.63;;;5.30;99.90;;;;;;2608329;54;20190;-71
2022/12/07 17:24:06;;;;;;;12.60;6.83;;;5.30;99.90;;;;;;2612204;54;20229;-72
2022/12/07 17:29:54;;;;;;;13.17;7.90;;;5.30;99.90;;;;;;2612093;54;20522;-71
2022/12/07 17:35:41;;;;;;;13.33;9.10;;;5.20;99.90;;;;;;2613448;54;20158;-71
2022/12/07 17:47:36;;;;;;;24.60;13.33;;;5.00;99.90;;;;;;2614660;54;20419;-71
2022/12/07 17:53:24;;;;;;;15.17;10.00;;;5.00;99.90;;;;;;2614873;39;20446;-71
2022/12/07 17:59:12;;;;;;;23.03;14.20;;;4.90;99.90;;;;;;2614404;54;20127;-71
2022/12/07 18:05:00;;;;;;;10.83;8.20;;;5.00;99.90;;;;;;2612285;54;20394;-72
2022/12/07 18:14:10;;;;;;;10.43;8.67;;;5.00;99.90;;;;;;2614731;54;20426;-73
2022/12/07 18:19:58;;;;;;;13.10;7.93;;;4.90;99.90;;;;;;2613720;46;20166;-71
2022/12/07 18:25:48;;;;;;;13.33;8.53;;;4.90;99.90;;;;;;2614208;54;20158;-70
2022/12/07 18:31:36;;;;;;;11.87;9.63;;;4.90;99.90;;;;;;2613109;54;20387;-71
2022/12/07 18:37:26;;;;;;;12.40;8.60;;;4.90;99.90;;;;;;2613363;54;20227;-70
2022/12/07 18:39:51;;;;;;;9.13;8.30;;;4.90;99.90;;;;;;2613360;54;20410;-72
2022/12/07 18:42:17;;;;;;;10.70;9.63;;;4.90;99.90;;;;;;2611652;31;20869;-71
2022/12/07 18:48:05;;;;;;;19.77;11.27;;;4.90;99.90;;;;;;2613104;54;20158;-71
2022/12/07 18:53:55;;;;;;;10.77;9.43;;;5.00;99.90;;;;;;2614398;54;20415;-70
2022/12/07 18:59:46;;;;;;;14.73;9.13;;;5.00;99.90;;;;;;2613526;54;20400;-70
2022/12/07 19:05:35;;;;;;;10.67;8.43;;;5.00;99.90;;;;;;2614205;54;20373;-72
2022/12/07 19:14:45;;;;;;;9.57;7.80;;;5.00;99.90;;;;;;2613925;54;20949;-71
2022/12/07 19:20:33;;;;;;;16.23;10.37;;;5.00;99.90;;;;;;2613028;39;21033;-73
2022/12/07 19:26:22;;;;;;;17.13;11.20;;;5.00;99.90;;;;;;2612808;39;20776;-71
2022/12/07 19:32:09;;;;;;;12.83;10.80;;;4.90;99.90;;;;;;2611768;54;20392;-71
2022/12/07 19:37:57;;;;;;;13.33;10.73;;;4.90;99.90;;;;;;2613542;54;20138;-71
2022/12/07 19:43:45;;;;;;;16.53;13.00;;;4.90;99.90;;;;;;2613919;39;20599;-71
2022/12/07 19:49:34;;;;;;;13.77;10.83;;;4.80;99.90;;;;;;2612312;54;20296;-73
2022/12/07 19:55:22;;;;;;;16.73;11.50;;;4.70;99.90;;;;;;2612164;54;20387;-71
2022/12/07 20:01:10;;;;;;;12.93;11.00;;;4.70;99.90;;;;;;2612164;54;20679;-71
2022/12/07 20:07:00;;;;;;;19.33;13.63;;;4.70;99.90;;;;;;2613375;54;20399;-72
2022/12/07 20:10:10;;;;;;;15.87;12.17;;;4.70;99.90;;;;;;2614201;54;20428;-72
2022/12/07 20:18:42;;;;;;;32.23;24.83;;;4.70;99.90;;;;;;2612743;54;20391;-74
2022/12/07 20:24:30;;;;;;;24.87;18.00;;;4.70;99.90;;;;;;2613748;54;20147;-69
2022/12/07 20:30:18;;;;;;;25.10;19.80;;;4.70;99.90;;;;;;2612542;54;20195;-72
2022/12/07 20:36:07;;;;;;;19.63;16.37;;;4.70;99.90;;;;;;2613174;54;20969;-73
2022/12/07 20:48:01;;;;;;;25.83;16.70;;;4.60;99.90;;;;;;2613928;54;20369;-70
2022/12/07 20:53:49;;;;;;;22.60;17.53;;;4.60;99.90;;;;;;2613073;54;20651;-72
2022/12/07 20:59:37;;;;;;;25.70;17.60;;;4.60;99.90;;;;;;2613977;54;20235;-72
2022/12/07 21:05:25;;;;;;;22.33;18.07;;;4.60;99.90;;;;;;2613295;54;20151;-70
2022/12/07 21:14:40;;;;;;;18.87;14.87;;;4.50;99.90;;;;;;2615154;54;20411;-74
2022/12/07 21:20:28;;;;;;;21.50;15.77;;;4.60;99.90;;;;;;2614141;54;20419;-72
2022/12/07 21:33:00;;;;;;;25.60;18.30;;;4.60;99.90;;;;;;2612365;54;20495;-71
2022/12/07 21:38:48;;;;;;;27.87;20.47;;;4.60;99.90;;;;;;2612428;54;20266;-71
2022/12/07 21:44:35;;;;;;;24.70;16.90;;;4.60;99.90;;;;;;2612963;54;20387;-71
2022/12/07 21:50:22;;;;;;;24.60;19.03;;;4.60;99.90;;;;;;2612390;39;20569;-72
2022/12/07 21:56:30;;;;;;;25.97;18.87;;;4.70;99.90;;;;;;2612446;54;20274;-70
2022/12/07 22:02:17;;;;;;;26.20;21.10;;;4.60;99.90;;;;;;2612443;54;20394;-71
2022/12/07 22:08:05;;;;;;;27.90;19.27;;;4.70;99.90;;;;;;2613659;54;20616;-74
2022/12/07 22:19:59;;;;;;;27.77;20.30;;;4.70;99.90;;;;;;2615275;46;20878;-72
2022/12/07 22:25:46;;;;;;;25.40;18.03;;;4.60;99.90;;;;;;2614297;54;20170;-71
2022/12/07 22:31:34;;;;;;;22.10;17.43;;;4.70;99.90;;;;;;2614995;54;20231;-72
2022/12/07 22:37:22;;;;;;;24.60;17.90;;;4.60;99.90;;;;;;2614709;54;20190;-72
2022/12/07 22:43:10;;;;;;;20.23;16.60;;;4.70;99.90;;;;;;2614466;54;20131;-72
2022/12/07 22:48:57;;;;;;;20.90;16.47;;;4.60;99.90;;;;;;2612987;46;20171;-73
2022/12/07 22:52:01;;;;;;;23.80;15.77;;;4.60;99.90;;;;;;2613983;49;20458;-74
2022/12/07 22:54:26;;;;;;;28.93;17.23;;;4.60;99.90;;;;;;2613102;54;20158;-73
2022/12/07 23:00:14;;;;;;;20.10;15.80;;;4.50;99.90;;;;;;2614091;54;20218;-72
2022/12/07 23:06:08;;;;;;;19.33;15.20;;;4.50;99.90;;;;;;2614210;54;20390;-73
2022/12/07 23:15:17;;;;;;;21.13;14.03;;;4.50;99.90;;;;;;2614679;54;20398;-72
2022/12/07 23:21:05;;;;;;;18.17;12.90;;;4.50;99.90;;;;;;2614079;54;20154;-73
2022/12/07 23:26:53;;;;;;;18.10;14.30;;;4.30;99.90;;;;;;2614483;54;20150;-72
2022/12/07 23:32:40;;;;;;;18.67;14.40;;;4.30;99.90;;;;;;2613624;54;20158;-72
2022/12/07 23:38:28;;;;;;;29.83;17.57;;;4.30;99.90;;;;;;2614732;39;20663;-72
2022/12/07 23:44:16;;;;;;;28.30;18.77;;;4.30;99.90;;;;;;2614294;54;20647;-73
2022/12/07 23:50:04;;;;;;;25.50;18.90;;;4.30;99.90;;;;;;2614013;54;20500;-71
2022/12/07 23:55:55;;;;;;;28.43;20.60;;;4.40;99.90;;;;;;2613980;54;20423;-73
